Time;durP1;ratioP1;P1;durP2;ratioP2;P2;SDS_P1;SDS_P2;PMS_P1;PMS_P2;Temp;Humidity;BMP_temperature;BMP_pressure;BME280_temperature;BME280_humidity;BME280_pressure;Samples;Min_cycle;Max_cycle;Signal;HPM_P1;HPM_P2
2021/09/12 00:38:37;;;;;;;4.28;2.63;;;;;;;18.64;72.54;100055.19;1090782;39;20520;-80
2021/09/12 00:39:39;;;;;;;4.72;2.88;;;;;;;18.65;72.31;100059.56;1087531;54;20041;-79
2021/09/12 00:40:43;;;;;;;5.88;2.97;;;;;;;18.73;72.29;100054.00;1087634;54;20041;-79
2021/09/12 00:41:45;;;;;;;4.75;3.08;;;;;;;18.83;72.00;100057.19;1087938;39;20554;-80
2021/09/12 00:42:49;;;;;;;5.07;3.38;;;;;;;18.89;71.56;100052.03;1087465;54;20030;-79
2021/09/12 00:43:51;;;;;;;5.78;3.30;;;;;;;18.81;72.00;100055.72;1087699;54;20042;-79
2021/09/12 00:44:55;;;;;;;4.82;3.03;;;;;;;18.91;71.70;100050.78;1087835;54;20041;-81
2021/09/12 00:45:58;;;;;;;4.47;3.15;;;;;;;18.88;71.90;100055.78;1087593;54;20034;-80
2021/09/12 00:47:10;;;;;;;4.65;3.03;;;;;;;18.79;72.03;100053.22;1086976;54;20042;-78
2021/09/12 00:48:12;;;;;;;6.40;3.17;;;;;;;18.82;72.13;100051.97;1087433;54;20572;-79
2021/09/12 00:49:17;;;;;;;5.10;3.15;;;;;;;18.82;71.82;100052.81;1087555;54;20034;-80
2021/09/12 00:50:19;;;;;;;5.03;3.20;;;;;;;18.82;71.70;100052.81;1087436;54;20030;-82
2021/09/12 00:51:23;;;;;;;5.60;3.22;;;;;;;18.79;72.16;100053.22;1087675;54;20037;-80
2021/09/12 00:52:27;;;;;;;5.50;3.55;;;;;;;18.81;71.81;100053.84;1087707;54;20042;-80
2021/09/12 00:53:34;;;;;;;5.22;3.25;;;;;;;18.83;71.74;100059.06;1087587;54;20038;-81
2021/09/12 00:54:39;;;;;;;6.80;3.17;;;;;;;18.82;71.83;100051.97;1091301;39;20750;-80
2021/09/12 00:55:45;;;;;;;4.68;3.35;;;;;;;18.73;72.20;100059.41;1087718;54;20034;-80
2021/09/12 00:56:48;;;;;;;6.25;4.00;;;;;;;18.61;72.50;100058.31;1087666;54;20081;-81
2021/09/12 00:57:53;;;;;;;6.13;4.00;;;;;;;18.48;73.10;100057.16;1087636;54;20105;-79
2021/09/12 00:58:56;;;;;;;5.43;3.92;;;;;;;18.46;73.43;100055.69;1087501;54;20034;-80
2021/09/12 01:00:02;;;;;;;5.70;3.78;;;;;;;18.39;73.47;100056.47;1087619;54;20039;-80
2021/09/12 01:01:04;;;;;;;6.30;3.50;;;;;;;18.40;73.45;100054.59;1088120;31;20683;-78
2021/09/12 01:02:09;;;;;;;5.72;4.25;;;;;;;18.26;73.59;100059.06;1087234;54;20034;-76
2021/09/12 01:03:11;;;;;;;5.63;3.90;;;;;;;18.30;73.58;100060.34;1087402;54;20038;-79
2021/09/12 01:04:15;;;;;;;5.80;3.92;;;;;;;18.32;73.84;100062.88;1087555;54;20030;-81
2021/09/12 01:05:17;;;;;;;6.10;4.22;;;;;;;18.16;74.37;100059.38;1087640;54;20651;-78
2021/09/12 01:06:21;;;;;;;6.40;4.72;;;;;;;18.14;74.61;100058.75;1087425;54;20061;-79
2021/09/12 01:07:23;;;;;;;11.55;5.18;;;;;;;18.13;74.72;100064.34;1087466;54;20038;-77
2021/09/12 01:08:27;;;;;;;5.97;4.40;;;;;;;18.13;74.75;100058.94;1087859;46;20635;-78
2021/09/12 01:09:30;;;;;;;5.82;4.57;;;;;;;18.24;74.03;100063.84;1087590;54;20057;-79
2021/09/12 01:10:37;;;;;;;5.68;4.13;;;;;;;18.25;74.31;100062.81;1087491;54;20049;-79
2021/09/12 01:11:39;;;;;;;5.78;3.70;;;;;;;18.18;74.37;100062.75;1088419;39;20685;-77
2021/09/12 01:12:44;;;;;;;6.28;4.45;;;;;;;18.07;74.80;100058.72;1087260;54;20030;-79
2021/09/12 01:13:45;;;;;;;5.60;4.57;;;;;;;17.98;74.92;100067.13;1087310;54;20038;-79
2021/09/12 01:14:49;;;;;;;6.05;4.30;;;;;;;18.02;75.08;100063.00;1087324;54;20065;-79
2021/09/12 01:15:51;;;;;;;6.50;4.32;;;;;;;17.86;75.34;100064.91;1087314;54;20065;-80
2021/09/12 01:16:55;;;;;;;6.95;4.40;;;;;;;17.91;75.36;100067.88;1087345;54;20021;-79
2021/09/12 01:17:57;;;;;;;6.38;4.70;;;;;;;18.01;75.23;100061.34;1087476;54;20046;-78
2021/09/12 01:19:01;;;;;;;5.95;4.28;;;;;;;17.95;75.03;100067.50;1087356;54;20046;-79
2021/09/12 01:20:04;;;;;;;6.72;4.55;;;;;;;17.86;75.50;100064.06;1087598;54;20064;-81
2021/09/12 01:21:08;;;;;;;6.75;4.47;;;;;;;17.83;75.60;100070.72;1087434;54;20045;-78
2021/09/12 01:22:10;;;;;;;6.53;4.80;;;;;;;17.88;75.24;100064.72;1087445;54;20782;-79
2021/09/12 01:23:14;;;;;;;5.82;4.00;;;;;;;17.95;75.17;100060.22;1087581;54;20038;-80
2021/09/12 01:24:18;;;;;;;5.80;4.25;;;;;;;17.88;75.04;100065.53;1087441;54;20034;-79
2021/09/12 01:25:22;;;;;;;5.35;4.15;;;;;;;17.98;74.61;100059.88;1087712;54;20065;-81
2021/09/12 01:26:25;;;;;;;6.43;3.97;;;;;;;17.99;74.53;100064.25;1087551;54;20061;-79
2021/09/12 01:27:29;;;;;;;5.70;4.22;;;;;;;17.97;74.62;100065.44;1089263;39;20456;-77
2021/09/12 01:28:31;;;;;;;5.65;3.95;;;;;;;18.04;74.56;100066.38;1087624;54;20066;-80
2021/09/12 01:29:35;;;;;;;5.47;3.65;;;;;;;18.05;74.38;100065.31;1091765;39;20436;-79
2021/09/12 01:30:37;;;;;;;5.82;4.05;;;;;;;17.90;74.70;100066.19;1087704;54;20043;-78
2021/09/12 01:31:41;;;;;;;7.18;3.83;;;;;;;17.99;74.67;100069.66;1087781;54;20034;-80
2021/09/12 01:32:43;;;;;;;6.07;4.25;;;;;;;17.97;74.38;100073.56;1087491;54;20038;-80
2021/09/12 01:33:47;;;;;;;6.70;3.92;;;;;;;17.92;74.38;100068.69;1087323;54;20034;-79
2021/09/12 01:34:49;;;;;;;5.72;3.75;;;;;;;17.84;74.51;100063.41;1087477;54;20034;-77
2021/09/12 01:35:53;;;;;;;5.85;3.65;;;;;;;17.82;74.49;100069.03;1087518;54;20702;-80
2021/09/12 01:36:55;;;;;;;8.30;4.50;;;;;;;17.64;75.08;100082.13;1087659;54;20030;-79
2021/09/12 01:37:59;;;;;;;6.53;4.43;;;;;;;17.55;75.46;100066.03;1089892;39;20453;-79
2021/09/12 01:39:01;;;;;;;5.38;4.18;;;;;;;17.61;75.13;100067.97;1087323;54;22143;-79
2021/09/12 01:40:09;;;;;;;6.20;4.45;;;;;;;17.59;75.44;100075.41;1088140;39;21148;-79
2021/09/12 01:41:11;;;;;;;7.05;4.00;;;;;;;17.49;75.43;100069.47;1088185;46;20082;-80
2021/09/12 01:42:15;;;;;;;7.22;4.68;;;;;;;17.44;75.67;100069.22;1087028;54;20058;-81
2021/09/12 01:43:20;;;;;;;8.57;5.35;;;;;;;17.38;75.92;100067.28;1087625;54;20031;-78
2021/09/12 01:44:26;;;;;;;7.22;4.72;;;;;;;17.35;76.12;100064.94;1087676;54;20031;-82
2021/09/12 01:45:28;;;;;;;6.22;3.88;;;;;;;17.36;76.18;100072.84;1088112;39;20503;-80
2021/09/12 01:46:32;;;;;;;5.68;4.55;;;;;;;17.38;75.96;100068.13;1087557;54;20019;-82
2021/09/12 01:47:34;;;;;;;6.20;4.10;;;;;;;17.44;75.57;100069.22;1087425;54;20595;-77
2021/09/12 01:48:38;;;;;;;5.60;3.95;;;;;;;17.46;75.71;100077.97;1087694;46;20043;-79
2021/09/12 01:49:41;;;;;;;5.93;3.70;;;;;;;17.51;75.35;100072.84;1087615;47;20127;-80
2021/09/12 01:50:45;;;;;;;5.35;3.90;;;;;;;17.52;75.53;100065.59;1087361;54;20572;-81
2021/09/12 01:51:46;;;;;;;5.80;4.00;;;;;;;17.66;75.03;100066.56;1087427;54;20034;-80
2021/09/12 01:52:51;;;;;;;5.82;4.07;;;;;;;17.74;74.95;100067.28;1087487;54;20119;-79
2021/09/12 01:53:52;;;;;;;5.68;3.65;;;;;;;17.79;74.30;100069.41;1087549;54;20045;-81
2021/09/12 01:54:56;;;;;;;4.82;3.45;;;;;;;17.84;74.24;100061.56;1087629;54;20054;-79
2021/09/12 01:56:01;;;;;;;5.35;3.17;;;;;;;17.87;74.25;100060.34;1087625;54;20027;-80
2021/09/12 01:57:05;;;;;;;4.93;3.40;;;;;;;17.87;74.12;100063.88;1087619;54;20041;-80
2021/09/12 01:58:07;;;;;;;7.20;4.15;;;;;;;17.86;74.06;100059.47;1087419;54;20039;-81
2021/09/12 01:59:11;;;;;;;5.45;3.78;;;;;;;17.79;74.32;100064.00;1087752;54;20027;-82
2021/09/12 02:00:14;;;;;;;6.13;3.63;;;;;;;17.87;74.11;100071.16;1088307;46;20039;-81
2021/09/12 02:01:18;;;;;;;6.60;3.97;;;;;;;17.91;74.26;100059.75;1087588;54;20038;-81
2021/09/12 02:02:22;;;;;;;6.15;3.28;;;;;;;17.96;74.01;100056.50;1088152;39;21031;-81
2021/09/12 02:03:24;;;;;;;4.82;3.13;;;;;;;17.97;73.71;100060.03;1087627;54;20034;-81
2021/09/12 02:04:28;;;;;;;4.93;3.40;;;;;;;17.85;74.34;100051.56;1087523;54;20030;-80
2021/09/12 02:05:30;;;;;;;5.57;3.65;;;;;;;17.91;74.06;100056.19;1087528;54;20595;-79
2021/09/12 02:06:34;;;;;;;5.20;3.83;;;;;;;17.79;74.54;100064.00;1087596;54;20035;-79
2021/09/12 02:07:35;;;;;;;5.85;4.43;;;;;;;17.66;74.98;100061.16;1087360;54;20042;-80
2021/09/12 02:08:39;;;;;;;6.22;4.97;;;;;;;17.54;75.36;100063.50;1087606;54;20082;-80
2021/09/12 02:09:43;;;;;;;6.88;4.53;;;;;;;17.48;75.41;100057.00;1087676;54;20034;-80
2021/09/12 02:10:45;;;;;;;5.95;4.57;;;;;;;17.38;75.87;100060.00;1087653;54;20034;-79
2021/09/12 02:11:52;;;;;;;6.63;4.57;;;;;;;17.34;75.91;100061.41;1087730;54;20042;-81
2021/09/12 02:12:54;;;;;;;7.72;4.68;;;;;;;17.29;75.98;100056.56;1087503;54;20130;-80
2021/09/12 02:13:58;;;;;;;6.03;4.60;;;;;;;17.27;76.18;100055.06;1087558;54;20031;-77
2021/09/12 02:15:00;;;;;;;6.57;4.60;;;;;;;17.28;76.25;100062.16;1087636;54;20046;-80
2021/09/12 02:16:04;;;;;;;7.45;4.50;;;;;;;17.23;76.10;100057.31;1087508;54;20034;-79
2021/09/12 02:17:05;;;;;;;7.85;4.30;;;;;;;17.28;76.32;100057.63;1087570;54;20061;-81
2021/09/12 02:18:10;;;;;;;6.50;4.78;;;;;;;17.22;76.38;100057.53;1087649;54;20045;-80
2021/09/12 02:19:12;;;;;;;6.32;4.93;;;;;;;17.15;76.39;100054.72;1087401;54;20035;-80
2021/09/12 02:20:16;;;;;;;5.72;4.57;;;;;;;17.19;76.53;100057.88;1087696;54;20034;-78
2021/09/12 02:21:17;;;;;;;7.85;4.40;;;;;;;17.12;76.78;100055.09;1087635;54;20038;-79
2021/09/12 02:22:22;;;;;;;6.82;4.72;;;;;;;17.05;76.94;100062.28;1087606;54;20086;-82
2021/09/12 02:23:24;;;;;;;6.63;4.57;;;;;;;17.12;76.97;100060.50;1088797;47;20063;-76
2021/09/12 02:24:31;;;;;;;6.38;4.85;;;;;;;17.07;76.75;100058.34;1086944;54;20039;-77
2021/09/12 02:25:34;;;;;;;7.00;4.90;;;;;;;17.07;76.63;100060.22;1087994;39;20527;-78
2021/09/12 02:26:38;;;;;;;6.50;4.95;;;;;;;17.05;77.04;100063.09;1087105;54;20037;-78
2021/09/12 02:27:42;;;;;;;5.88;4.50;;;;;;;16.93;77.55;100053.78;1086840;54;20038;-77
2021/09/12 02:28:47;;;;;;;7.03;4.78;;;;;;;16.94;77.25;100053.63;1086821;54;20035;-77
2021/09/12 02:29:52;;;;;;;6.22;4.63;;;;;;;17.08;77.22;100051.13;1088118;39;20744;-76
2021/09/12 02:30:56;;;;;;;6.15;4.10;;;;;;;17.18;76.71;100046.25;1086941;54;20038;-77
2021/09/12 02:31:59;;;;;;;6.15;4.15;;;;;;;17.24;76.42;100050.06;1087541;54;20059;-77
2021/09/12 02:33:04;;;;;;;6.22;4.20;;;;;;;17.26;76.14;100043.44;1087610;54;20054;-77
2021/09/12 02:34:08;;;;;;;6.43;4.20;;;;;;;17.00;77.20;100052.84;1086764;54;20063;-77
2021/09/12 02:35:13;;;;;;;6.85;4.57;;;;;;;16.91;77.56;100056.66;1086820;54;20035;-76
2021/09/12 02:36:14;;;;;;;6.25;3.88;;;;;;;16.96;77.51;100056.13;1086553;54;20051;-77
2021/09/12 02:37:20;;;;;;;5.65;4.45;;;;;;;16.84;77.64;100048.47;1086837;54;20042;-78
2021/09/12 02:38:22;;;;;;;7.95;4.53;;;;;;;16.80;77.82;100049.03;1089450;39;20696;-77
2021/09/12 02:39:26;;;;;;;7.30;4.90;;;;;;;16.79;77.88;100052.75;1087245;54;20035;-77
2021/09/12 02:40:27;;;;;;;6.88;5.05;;;;;;;16.66;78.54;100050.69;1087278;54;20047;-77
2021/09/12 02:41:32;;;;;;;6.78;4.88;;;;;;;16.60;78.59;100052.28;1087468;54;20034;-78
2021/09/12 02:42:33;;;;;;;6.35;4.57;;;;;;;16.60;78.72;100057.66;1087101;54;20039;-78
2021/09/12 02:43:40;;;;;;;7.97;5.28;;;;;;;16.61;78.78;100053.94;1087359;54;20038;-78
2021/09/12 02:44:42;;;;;;;8.32;5.05;;;;;;;16.61;78.73;100051.25;1087397;54;20041;-77
2021/09/12 02:45:46;;;;;;;5.63;4.43;;;;;;;16.64;78.17;100060.84;1087098;39;20481;-77
2021/09/12 02:46:47;;;;;;;9.90;5.22;;;;;;;16.66;77.91;100048.81;1086487;54;20034;-77
2021/09/12 02:47:52;;;;;;;6.45;4.43;;;;;;;16.59;78.17;100058.69;1086339;54;20030;-77
2021/09/12 02:48:53;;;;;;;7.82;5.22;;;;;;;16.45;78.88;100059.47;1086439;54;20046;-77
2021/09/12 02:49:57;;;;;;;6.93;5.30;;;;;;;16.31;79.14;100058.44;1086998;54;20027;-77
2021/09/12 02:51:01;;;;;;;7.30;4.90;;;;;;;16.22;79.47;100061.19;1086981;54;20042;-77
2021/09/12 02:52:04;;;;;;;8.57;5.55;;;;;;;16.19;79.68;100060.72;1087668;54;20022;-78
2021/09/12 02:53:08;;;;;;;7.45;4.93;;;;;;;16.19;79.57;100063.44;1089156;46;20038;-77
2021/09/12 02:54:10;;;;;;;8.65;4.85;;;;;;;16.12;80.11;100065.19;1087313;54;20038;-77
2021/09/12 02:55:14;;;;;;;7.05;4.00;;;;;;;16.08;79.89;100061.16;1086768;54;20038;-76
2021/09/12 02:56:19;;;;;;;9.38;4.60;;;;;;;16.13;79.48;100062.28;1087816;54;20038;-79
2021/09/12 02:57:20;;;;;;;6.50;3.95;;;;;;;16.17;79.54;100062.75;1088453;46;20046;-77
2021/09/12 02:58:24;;;;;;;7.70;4.35;;;;;;;16.19;79.40;100061.59;1087458;54;20087;-77
2021/09/12 02:59:28;;;;;;;8.25;4.93;;;;;;;16.16;79.28;100058.38;1087500;54;20046;-76
2021/09/12 03:00:33;;;;;;;6.60;4.65;;;;;;;16.16;79.02;100061.09;1087100;54;20067;-76
2021/09/12 03:01:46;;;;;;;7.18;4.90;;;;;;;16.08;79.41;100055.75;1087092;54;20034;-76
2021/09/12 03:02:56;;;;;;;6.15;4.60;;;;;;;16.13;79.22;100058.78;1087332;54;20897;-77
2021/09/12 03:04:10;;;;;;;6.82;4.75;;;;;;;16.02;79.75;100068.09;1087580;54;20041;-77
2021/09/12 03:05:20;;;;;;;7.95;4.60;;;;;;;16.03;79.45;100059.00;1087086;54;20034;-78
2021/09/12 03:06:34;;;;;;;7.93;4.80;;;;;;;16.00;79.52;100054.81;1087474;39;20636;-78
2021/09/12 03:07:36;;;;;;;5.60;4.13;;;;;;;15.97;79.72;100059.72;1087019;54;20034;-76
2021/09/12 03:08:40;;;;;;;7.05;4.38;;;;;;;15.95;79.48;100057.22;1087728;54;20046;-78
2021/09/12 03:09:42;;;;;;;6.10;4.60;;;;;;;15.88;79.77;100056.25;1087963;54;20062;-78
2021/09/12 03:10:46;;;;;;;7.28;4.70;;;;;;;15.74;80.18;100063.22;1087885;54;20107;-78
2021/09/12 03:11:51;;;;;;;7.68;4.78;;;;;;;15.66;80.52;100061.44;1087712;54;20046;-77
2021/09/12 03:12:55;;;;;;;7.78;5.00;;;;;;;15.64;80.46;100060.75;1087841;54;20034;-78
2021/09/12 03:13:56;;;;;;;9.35;5.10;;;;;;;15.64;80.50;100060.75;1087990;54;20034;-79
2021/09/12 03:15:03;;;;;;;8.50;5.10;;;;;;;15.59;80.71;100057.72;1087708;54;20034;-78
2021/09/12 03:16:05;;;;;;;5.78;4.88;;;;;;;15.68;80.69;100055.84;1087847;54;20034;-77
2021/09/12 03:17:09;;;;;;;6.93;4.72;;;;;;;15.64;80.41;100055.38;1087782;54;20062;-78
2021/09/12 03:18:11;;;;;;;7.93;5.35;;;;;;;15.65;80.68;100058.88;1090533;46;20038;-77
2021/09/12 03:19:15;;;;;;;8.50;5.40;;;;;;;15.67;80.66;100059.56;1088123;54;20318;-80
2021/09/12 03:20:17;;;;;;;8.25;6.93;;;;;;;15.62;80.52;100052.00;1087916;54;20034;-77
2021/09/12 03:21:22;;;;;;;8.82;6.60;;;;;;;15.59;80.90;100052.34;1087710;54;20046;-77
2021/09/12 03:22:24;;;;;;;8.93;6.35;;;;;;;15.62;80.89;100062.78;1087354;54;20039;-78
2021/09/12 03:23:29;;;;;;;7.82;5.72;;;;;;;15.62;80.97;100061.97;1086891;54;20045;-77
2021/09/12 03:24:31;;;;;;;7.05;5.55;;;;;;;15.67;80.55;100055.03;1087412;54;20062;-77
2021/09/12 03:25:36;;;;;;;7.75;6.00;;;;;;;15.75;80.26;100056.81;1087498;54;20038;-77
2021/09/12 03:26:37;;;;;;;8.35;5.78;;;;;;;15.77;80.32;100054.78;1088743;46;20038;-78
2021/09/12 03:27:41;;;;;;;8.25;6.15;;;;;;;15.72;80.15;100058.00;1088127;46;20038;-77
2021/09/12 03:28:43;;;;;;;9.98;6.80;;;;;;;15.75;80.06;100056.81;1087942;54;20033;-77
2021/09/12 03:29:47;;;;;;;8.30;7.07;;;;;;;15.71;80.19;100050.94;1088075;47;20203;-77
2021/09/12 03:30:51;;;;;;;10.73;7.10;;;;;;;15.65;80.58;100050.81;1088031;54;20038;-77
2021/09/12 03:32:01;;;;;;;7.75;6.30;;;;;;;15.60;80.77;100057.56;1088801;46;20026;-79
2021/09/12 03:33:03;;;;;;;7.18;5.55;;;;;;;15.56;80.78;100055.41;1087928;54;20039;-77
2021/09/12 03:34:07;;;;;;;12.10;5.20;;;;;;;15.56;80.91;100053.56;1088459;46;20014;-78
2021/09/12 03:35:09;;;;;;;5.90;4.90;;;;;;;15.56;81.05;100047.34;1088079;54;20026;-78
2021/09/12 03:36:15;;;;;;;6.65;5.13;;;;;;;15.60;80.67;100054.03;1088758;46;20071;-78
2021/09/12 03:37:16;;;;;;;9.40;4.80;;;;;;;15.53;80.69;100056.63;1088060;54;20137;-79
2021/09/12 03:38:20;;;;;;;7.55;5.13;;;;;;;15.43;81.33;100048.75;1087785;54;20046;-77
2021/09/12 03:39:22;;;;;;;8.55;5.28;;;;;;;15.43;81.67;100054.13;1087781;54;20208;-77
2021/09/12 03:40:26;;;;;;;5.95;4.63;;;;;;;15.41;81.50;100052.63;1087996;54;20030;-78
2021/09/12 03:41:28;;;;;;;7.22;5.28;;;;;;;15.38;81.65;100050.28;1087915;54;20034;-78
2021/09/12 03:42:32;;;;;;;9.05;5.28;;;;;;;15.38;81.59;100056.53;1088306;46;20030;-78
2021/09/12 03:43:35;;;;;;;8.45;5.15;;;;;;;15.35;81.82;100045.28;1090311;46;20037;-77
2021/09/12 03:44:39;;;;;;;5.70;4.30;;;;;;;15.35;81.67;100056.03;1087787;54;20026;-77
2021/09/12 03:45:41;;;;;;;7.75;4.90;;;;;;;15.32;81.87;100054.50;1087973;54;20045;-77
2021/09/12 03:46:47;;;;;;;8.30;5.28;;;;;;;15.39;81.75;100054.66;1087838;54;20033;-77
2021/09/12 03:47:52;;;;;;;6.55;4.90;;;;;;;15.42;81.43;100055.13;1089455;39;20796;-79
2021/09/12 03:48:55;;;;;;;6.40;5.20;;;;;;;15.38;81.71;100059.22;1088041;54;20034;-78
2021/09/12 03:49:59;;;;;;;7.75;4.90;;;;;;;15.44;81.41;100050.41;1088672;46;20079;-78
2021/09/12 03:51:04;;;;;;;6.32;4.75;;;;;;;15.50;80.96;100050.72;1088143;46;20034;-77
2021/09/12 03:52:06;;;;;;;6.47;4.70;;;;;;;15.49;80.84;100055.28;1090568;46;20030;-79
2021/09/12 03:53:10;;;;;;;7.13;4.47;;;;;;;15.49;80.92;100049.91;1087973;54;20034;-77
2021/09/12 03:54:12;;;;;;;6.63;4.55;;;;;;;15.57;80.62;100055.22;1089763;46;20816;-77
2021/09/12 03:55:16;;;;;;;5.93;4.45;;;;;;;15.48;81.00;100052.78;1087955;54;20095;-78
2021/09/12 03:56:18;;;;;;;7.95;5.00;;;;;;;15.54;80.94;100049.38;1087797;54;20035;-78
2021/09/12 03:57:23;;;;;;;7.10;4.88;;;;;;;15.48;80.65;100056.28;1087741;54;20034;-78
2021/09/12 03:58:25;;;;;;;6.10;4.30;;;;;;;15.46;80.98;100046.72;1087970;54;20038;-77
2021/09/12 03:59:29;;;;;;;7.75;5.18;;;;;;;15.42;80.90;100055.13;1087706;54;20076;-77
2021/09/12 04:00:30;;;;;;;7.70;5.03;;;;;;;15.41;81.02;100053.47;1087256;54;20042;-77
2021/09/12 04:01:36;;;;;;;7.82;4.93;;;;;;;15.49;80.76;100051.75;1088263;46;20035;-78
2021/09/12 04:02:43;;;;;;;7.30;4.70;;;;;;;15.55;80.76;100059.94;1087725;54;20041;-77
2021/09/12 04:03:44;;;;;;;7.35;4.35;;;;;;;15.70;79.94;100056.50;1087551;54;20026;-77
2021/09/12 04:04:49;;;;;;;6.53;4.20;;;;;;;15.62;80.19;100057.41;1087571;54;20063;-78
2021/09/12 04:05:50;;;;;;;7.28;4.80;;;;;;;15.55;80.30;100053.72;1087589;54;20034;-77
2021/09/12 04:06:54;;;;;;;7.25;5.30;;;;;;;15.43;80.64;100059.50;1087572;54;20083;-77
2021/09/12 04:07:59;;;;;;;6.05;4.78;;;;;;;15.47;80.81;100053.78;1087353;54;20080;-77
2021/09/12 04:09:00;;;;;;;6.90;5.40;;;;;;;15.40;81.18;100062.56;1087523;54;20042;-78
2021/09/12 04:10:05;;;;;;;7.30;5.40;;;;;;;15.39;81.29;100060.03;1087832;54;20043;-78
2021/09/12 04:11:06;;;;;;;6.75;4.88;;;;;;;15.42;80.80;100059.69;1087652;54;20058;-76
2021/09/12 04:12:11;;;;;;;6.80;4.70;;;;;;;15.40;81.29;100057.16;1087768;54;20037;-77
2021/09/12 04:13:12;;;;;;;7.38;5.20;;;;;;;15.47;80.92;100056.47;1087366;54;20038;-77
2021/09/12 04:14:16;;;;;;;6.13;4.63;;;;;;;15.50;80.51;100064.19;1087664;54;20031;-77
2021/09/12 04:15:18;;;;;;;9.25;5.55;;;;;;;15.40;81.08;100054.47;1089350;39;20523;-77
2021/09/12 04:16:22;;;;;;;6.80;5.22;;;;;;;15.39;81.30;100057.34;1087694;54;20746;-77
2021/09/12 04:17:24;;;;;;;6.85;4.97;;;;;;;15.38;80.97;100058.38;1087767;54;20042;-79
2021/09/12 04:18:30;;;;;;;9.02;5.15;;;;;;;15.35;81.09;100053.34;1087745;54;20018;-77
2021/09/12 04:19:32;;;;;;;6.30;4.97;;;;;;;15.32;81.42;100051.81;1087850;54;20065;-78
2021/09/12 04:20:36;;;;;;;8.30;5.43;;;;;;;15.35;81.15;100053.34;1087758;54;20042;-77
2021/09/12 04:21:38;;;;;;;6.72;4.70;;;;;;;15.33;81.25;100058.88;1087849;54;20041;-78
2021/09/12 04:22:42;;;;;;;7.03;4.78;;;;;;;15.37;81.14;100059.38;1087823;54;20054;-78
2021/09/12 04:23:44;;;;;;;7.38;5.53;;;;;;;15.34;81.27;100057.06;1087793;54;20034;-77
2021/09/12 04:24:48;;;;;;;7.10;5.60;;;;;;;15.31;81.29;100058.22;1087677;54;20034;-78
2021/09/12 04:25:49;;;;;;;10.27;5.10;;;;;;;15.31;81.29;100054.69;1090288;39;20501;-77
2021/09/12 04:26:54;;;;;;;8.10;5.50;;;;;;;15.31;81.50;100055.53;1087841;54;20038;-78
2021/09/12 04:27:56;;;;;;;6.13;4.78;;;;;;;15.39;81.28;100063.59;1087882;39;20559;-78
2021/09/12 04:29:00;;;;;;;6.47;5.35;;;;;;;15.34;81.25;100059.75;1087856;54;20040;-78
2021/09/12 04:30:02;;;;;;;9.05;5.40;;;;;;;15.32;81.40;100062.59;1087817;54;20041;-77
2021/09/12 04:31:06;;;;;;;7.07;5.55;;;;;;;15.24;81.82;100059.94;1087763;54;20034;-77
2021/09/12 04:32:08;;;;;;;7.43;5.68;;;;;;;15.20;81.94;100054.06;1088253;39;20547;-77
2021/09/12 04:33:12;;;;;;;6.95;5.57;;;;;;;15.17;82.06;100064.34;1087886;54;20035;-77
2021/09/12 04:34:16;;;;;;;8.30;5.28;;;;;;;15.20;82.08;100062.16;1087905;54;20042;-78
2021/09/12 04:35:22;;;;;;;12.43;5.63;;;;;;;15.21;81.81;100066.53;1087873;54;20034;-78
2021/09/12 04:36:25;;;;;;;9.15;4.97;;;;;;;15.22;81.99;100064.66;1089879;46;20882;-78
2021/09/12 04:37:29;;;;;;;6.88;4.90;;;;;;;15.24;81.57;100065.31;1087709;54;20046;-75
2021/09/12 04:38:31;;;;;;;9.07;5.60;;;;;;;15.18;82.00;100060.66;1087805;54;20038;-76
2021/09/12 04:39:35;;;;;;;9.43;5.13;;;;;;;15.18;81.85;100072.25;1087859;54;20019;-79
2021/09/12 04:40:37;;;;;;;7.13;5.00;;;;;;;15.20;82.08;100064.00;1087899;54;20054;-81
2021/09/12 04:41:41;;;;;;;9.10;5.28;;;;;;;15.22;81.88;100073.59;1087843;54;20042;-79
2021/09/12 04:42:42;;;;;;;7.45;5.18;;;;;;;15.21;81.97;100068.38;1087744;54;20045;-83
2021/09/12 04:43:47;;;;;;;7.13;5.20;;;;;;;15.24;81.50;100076.09;1087679;54;20054;-84
2021/09/12 04:44:48;;;;;;;6.38;4.70;;;;;;;15.27;81.29;100065.00;1088048;46;20064;-80
2021/09/12 04:45:52;;;;;;;5.70;3.97;;;;;;;15.40;81.04;100067.94;1087736;54;20090;-80
2021/09/12 04:46:54;;;;;;;5.93;4.50;;;;;;;15.49;80.57;100067.91;1087824;54;20030;-81
2021/09/12 04:47:58;;;;;;;6.85;4.65;;;;;;;15.50;80.70;100059.66;1087666;54;20034;-80
2021/09/12 04:49:00;;;;;;;7.80;4.47;;;;;;;15.51;80.21;100073.94;1087715;54;20051;-82
2021/09/12 04:50:07;;;;;;;7.45;4.50;;;;;;;15.44;80.49;100061.19;1087924;54;20034;-82
2021/09/12 04:51:09;;;;;;;5.50;3.90;;;;;;;15.51;80.20;100066.72;1087897;54;20035;-82
2021/09/12 04:52:13;;;;;;;6.35;4.65;;;;;;;15.45;80.53;100062.03;1087756;54;20303;-82
2021/09/12 04:53:15;;;;;;;6.65;4.22;;;;;;;15.43;80.38;100066.78;1087776;54;20038;-82
2021/09/12 04:54:19;;;;;;;7.32;4.90;;;;;;;15.37;80.72;100062.94;1087785;54;20075;-80
2021/09/12 04:55:21;;;;;;;6.30;5.05;;;;;;;15.35;80.77;100070.34;1088054;46;20015;-83
2021/09/12 04:56:25;;;;;;;7.70;4.53;;;;;;;15.29;80.96;100068.34;1087823;54;20026;-82
2021/09/12 04:57:27;;;;;;;9.48;5.82;;;;;;;15.18;81.27;100066.03;1087759;54;20035;-84
2021/09/12 04:58:31;;;;;;;7.60;5.35;;;;;;;15.17;81.26;100070.56;1087876;54;20096;-84
2021/09/12 04:59:33;;;;;;;8.13;5.50;;;;;;;15.19;81.25;100068.53;1087838;46;20030;-78
2021/09/12 05:00:38;;;;;;;6.85;4.70;;;;;;;15.22;81.11;100078.13;1087706;54;20038;-78
2021/09/12 05:01:39;;;;;;;6.55;5.13;;;;;;;15.24;81.16;100081.47;1087697;54;20038;-78
2021/09/12 05:02:43;;;;;;;7.32;5.30;;;;;;;15.16;81.14;100070.75;1087606;54;20022;-77
2021/09/12 05:03:45;;;;;;;6.68;5.10;;;;;;;15.15;81.11;100077.16;1088684;46;20038;-77
2021/09/12 05:04:49;;;;;;;7.18;5.43;;;;;;;15.12;81.44;100079.16;1088731;46;20034;-78
2021/09/12 05:05:53;;;;;;;7.00;5.10;;;;;;;15.13;81.16;100075.47;1087372;54;20038;-77
2021/09/12 05:06:58;;;;;;;7.22;4.95;;;;;;;15.13;81.33;100077.31;1087904;46;20042;-77
2021/09/12 05:07:59;;;;;;;6.60;4.88;;;;;;;15.08;81.54;100077.84;1088564;46;20057;-79
2021/09/12 05:09:03;;;;;;;9.77;5.50;;;;;;;15.05;81.39;100080.06;1087606;54;20026;-79
2021/09/12 05:10:09;;;;;;;10.00;5.53;;;;;;;14.96;82.21;100085.47;1087710;54;20045;-79
2021/09/12 05:11:10;;;;;;;6.78;5.65;;;;;;;15.06;81.72;100076.34;1087736;54;20034;-78
2021/09/12 05:12:15;;;;;;;6.95;5.60;;;;;;;15.01;81.84;100082.25;1087674;54;20075;-82
2021/09/12 05:13:16;;;;;;;8.52;4.88;;;;;;;14.97;81.64;100080.91;1087841;54;20030;-79
2021/09/12 05:14:24;;;;;;;8.90;5.65;;;;;;;15.00;81.83;100080.56;1087728;54;20094;-78
2021/09/12 05:15:26;;;;;;;6.20;5.03;;;;;;;15.01;81.77;100079.56;1087501;54;20034;-78
2021/09/12 05:16:30;;;;;;;7.10;5.07;;;;;;;14.97;81.79;100086.28;1089461;46;20059;-78
2021/09/12 05:17:32;;;;;;;8.07;5.55;;;;;;;14.93;81.72;100087.63;1087667;54;20041;-78
2021/09/12 05:18:36;;;;;;;8.88;6.00;;;;;;;14.87;82.02;100077.56;1090871;46;20034;-78
2021/09/12 05:19:38;;;;;;;6.90;5.35;;;;;;;14.87;82.00;100081.13;1089108;46;20647;-78
2021/09/12 05:20:43;;;;;;;7.80;5.43;;;;;;;14.85;82.10;100080.44;1087813;54;20026;-78
2021/09/12 05:21:47;;;;;;;7.50;5.63;;;;;;;14.89;82.01;100089.84;1087645;54;20046;-78
2021/09/12 05:22:51;;;;;;;8.70;5.72;;;;;;;14.88;82.19;100087.31;1087727;54;20030;-79
2021/09/12 05:23:53;;;;;;;7.88;5.93;;;;;;;14.79;82.14;100076.59;1087710;54;20035;-78
2021/09/12 05:24:58;;;;;;;8.52;5.13;;;;;;;14.80;82.37;100085.47;1087657;54;20041;-79
2021/09/12 05:25:59;;;;;;;7.07;5.07;;;;;;;14.84;82.05;100084.13;1087806;54;20039;-77
2021/09/12 05:27:03;;;;;;;9.18;5.55;;;;;;;14.77;82.48;100092.06;1087593;54;20455;-77
2021/09/12 05:28:05;;;;;;;10.02;5.90;;;;;;;14.77;82.72;100086.66;1087430;54;20034;-77
2021/09/12 05:29:09;;;;;;;8.77;5.40;;;;;;;14.81;82.31;100085.34;1087569;54;20046;-76
2021/09/12 05:30:11;;;;;;;7.70;5.72;;;;;;;14.81;82.39;100088.03;1087998;39;20597;-77
2021/09/12 05:31:15;;;;;;;7.70;5.53;;;;;;;14.80;82.44;100086.34;1087515;54;20034;-77
2021/09/12 05:32:17;;;;;;;8.30;5.43;;;;;;;14.78;82.67;100087.53;1087432;54;20025;-77
2021/09/12 05:33:21;;;;;;;7.22;5.78;;;;;;;14.80;82.56;100089.03;1090444;39;20853;-77